Time,TemperatureF,DewpointF,PressureIn,WindDirection,WindDirectionDegrees,WindSpeedMPH,WindSpeedGustMPH,Humidity,HourlyPrecipIn,Conditions,Clouds,dailyrainin,SoftwareType,DateUTC
2013-02-04 00:01:00,42.1,27.1,24.38,North,0,11.5,11.5,55,0.00,CLR,,0.00,WeatherDisplay:10.37,2013-02-04 07:01:00,
2013-02-04 00:06:00,42.1,27.1,24.39,North,0,8.1,8.1,55,0.00,CLR,,0.00,WeatherDisplay:10.37,2013-02-04 07:06:00,
2013-02-04 00:11:00,41.7,27.2,24.38,NW,315,13.8,13.8,56,0.00,CLR,,0.00,WeatherDisplay:10.37,2013-02-04 07:11:00,
2013-02-04 00:16:00,41.5,27.0,24.38,North,0,17.3,17.3,56,0.00,CLR,,0.00,WeatherDisplay:10.37,2013-02-04 07:16:00,
2013-02-04 00:21:00,41.5,27.4,24.38,North,0,13.8,13.8,57,0.00,CLR,,0.00,WeatherDisplay:10.37,2013-02-04 07:21:00,
2013-02-04 00:27:00,41.5,27.8,24.38,NW,315,12.7,12.7,58,0.00,CLR,,0.00,WeatherDisplay:10.37,2013-02-04 07:27:00,
2013-02-04 00:32:00,41.5,27.8,24.38,NW,315,12.7,12.7,58,0.00,CLR,,0.00,WeatherDisplay:10.37,2013-02-04 07:32:00,
2013-02-04 00:37:00,41.5,27.8,24.38,NW,315,13.8,13.8,58,0.00,CLR,,0.00,WeatherDisplay:10.37,2013-02-04 07:37:00,
2013-02-04 00:43:00,41.4,28.1,24.37,NW,315,15.0,15.0,59,0.00,CLR,,0.00,WeatherDisplay:10.37,2013-02-04 07:43:00,
2013-02-04 00:48:00,41.4,28.1,24.37,NW,315,15.0,15.0,59,0.00,CLR,,0.00,WeatherDisplay:10.37,2013-02-04 07:48:00,
2013-02-04 00:53:00,41.0,28.2,24.37,North,0,11.5,11.5,60,0.00,CLR,,0.00,WeatherDisplay:10.37,2013-02-04 07:53:00,
2013-02-04 00:58:00,40.8,28.8,24.38,NW,315,9.2,9.2,62,0.00,CLR,,0.00,WeatherDisplay:10.37,2013-02-04 07:58:00,
2013-02-04 01:04:00,40.6,28.6,24.38,West,270,8.1,8.1,62,0.00,CLR,,0.00,WeatherDisplay:10.37,2013-02-04 08:04:00,
2013-02-04 01:09:00,39.9,28.7,24.38,West,270,8.1,8.1,64,0.00,CLR,,0.00,WeatherDisplay:10.37,2013-02-04 08:09:00,
2013-02-04 01:14:00,39.7,28.9,24.38,NW,315,10.4,10.4,65,0.00,CLR,,0.00,WeatherDisplay:10.37,2013-02-04 08:14:00,
2013-02-04 01:19:00,39.4,28.6,24.38,West,270,8.1,8.1,65,0.00,CLR,,0.00,WeatherDisplay:10.37,2013-02-04 08:19:00,
2013-02-04 01:24:00,39.2,28.4,24.37,NW,315,8.1,8.1,65,0.00,CLR,,0.00,WeatherDisplay:10.37,2013-02-04 08:24:00,
2013-02-04 01:29:00,38.7,28.6,24.37,North,0,13.8,13.8,67,0.00,CLR,,0.00,WeatherDisplay:10.37,2013-02-04 08:29:00,
2013-02-04 01:35:00,38.8,29.2,24.36,West,270,12.7,12.7,68,0.00,CLR,,0.00,WeatherDisplay:10.37,2013-02-04 08:35:00,
2013-02-04 01:40:00,38.7,29.0,24.37,North,0,9.2,9.2,68,0.00,CLR,,0.00,WeatherDisplay:10.37,2013-02-04 08:40:00,
2013-02-04 01:45:00,38.5,29.2,24.37,NNW,338,8.1,8.1,69,0.00,CLR,,0.00,WeatherDisplay:10.37,2013-02-04 08:45:00,
2013-02-04 01:50:00,38.3,29.4,24.38,North,0,10.4,10.4,70,0.00,CLR,,0.00,WeatherDisplay:10.37,2013-02-04 08:50:00,
2013-02-04 01:56:00,38.3,29.4,24.38,NW,315,8.1,8.1,70,0.00,CLR,,0.00,WeatherDisplay:10.37,2013-02-04 08:56:00,
2013-02-04 02:01:00,38.1,29.5,24.38,NW,315,4.6,4.6,71,0.00,CLR,,0.00,WeatherDisplay:10.37,2013-02-04 09:01:00,
2013-02-04 02:06:00,37.8,29.2,24.38,NW,315,6.9,6.9,71,0.00,CLR,,0.00,WeatherDisplay:10.37,2013-02-04 09:06:00,
2013-02-04 02:11:00,37.6,29.4,24.38,North,0,5.8,5.8,72,0.00,CLR,,0.00,WeatherDisplay:10.37,2013-02-04 09:11:00,
2013-02-04 02:17:00,37.2,27.6,24.38,North,0,8.1,8.1,68,0.00,CLR,,0.00,WeatherDisplay:10.37,2013-02-04 09:17:00,
2013-02-04 02:22:00,37.2,27.6,24.38,WNW,292,5.8,5.8,68,0.00,CLR,,0.00,WeatherDisplay:10.37,2013-02-04 09:22:00,
2013-02-04 02:27:00,37.0,27.5,24.38,NW,315,9.2,9.2,68,0.00,CLR,,0.00,WeatherDisplay:10.37,2013-02-04 09:27:00,
2013-02-04 02:32:00,37.0,27.5,24.38,West,270,8.1,8.1,68,0.00,CLR,,0.00,WeatherDisplay:10.37,2013-02-04 09:32:00,
2013-02-04 02:38:00,36.9,26.9,24.39,North,0,8.1,8.1,67,0.00,CLR,,0.00,WeatherDisplay:10.37,2013-02-04 09:38:00,
2013-02-04 02:43:00,36.7,26.7,24.38,North,0,5.8,5.8,67,0.00,CLR,,0.00,WeatherDisplay:10.37,2013-02-04 09:43:00,
2013-02-04 02:48:00,36.3,26.4,24.38,NW,315,5.8,5.8,67,0.00,CLR,,0.00,WeatherDisplay:10.37,2013-02-04 09:48:00,
2013-02-04 02:53:00,36.0,26.4,24.38,North,0,10.4,10.4,68,0.00,CLR,,0.00,WeatherDisplay:10.37,2013-02-04 09:53:00,
2013-02-04 02:58:00,36.0,26.4,24.39,NW,315,12.7,12.7,68,0.00,CLR,,0.00,WeatherDisplay:10.37,2013-02-04 09:58:00,
2013-02-04 03:03:00,36.0,26.4,24.39,NW,315,11.5,11.5,68,0.00,CLR,,0.00,WeatherDisplay:10.37,2013-02-04 10:03:00,
2013-02-04 03:09:00,36.0,26.4,24.38,NW,315,11.5,11.5,68,0.00,CLR,,0.00,WeatherDisplay:10.37,2013-02-04 10:09:00,
2013-02-04 03:14:00,35.8,26.6,24.38,NW,315,10.4,10.4,69,0.00,CLR,,0.00,WeatherDisplay:10.37,2013-02-04 10:14:00,
2013-02-04 03:19:00,35.8,26.9,24.38,North,0,13.8,13.8,70,0.00,CLR,,0.00,WeatherDisplay:10.37,2013-02-04 10:19:00,
2013-02-04 03:24:00,35.6,27.1,24.38,NW,315,12.7,12.7,71,0.00,CLR,,0.00,WeatherDisplay:10.37,2013-02-04 10:24:00,
2013-02-04 03:29:00,35.6,27.1,24.38,NW,315,13.8,13.8,71,0.00,CLR,,0.00,WeatherDisplay:10.37,2013-02-04 10:29:00,
2013-02-04 03:35:00,36.0,27.5,24.38,WNW,292,15.0,15.0,71,0.00,CLR,,0.00,WeatherDisplay:10.37,2013-02-04 10:35:00,
2013-02-04 03:40:00,36.1,27.3,24.39,NW,315,12.7,12.7,70,0.00,CLR,,0.00,WeatherDisplay:10.37,2013-02-04 10:40:00,
2013-02-04 03:45:00,36.5,27.6,24.38,NW,315,13.8,13.8,70,0.00,CLR,,0.00,WeatherDisplay:10.37,2013-02-04 10:45:00,
2013-02-04 03:50:00,36.7,27.5,24.38,North,0,13.8,13.8,69,0.00,CLR,,0.00,WeatherDisplay:10.37,2013-02-04 10:50:00,
2013-02-04 03:55:00,36.7,27.8,24.38,North,0,13.8,13.8,70,0.00,CLR,,0.00,WeatherDisplay:10.37,2013-02-04 10:55:00,
2013-02-04 04:01:00,36.7,28.2,24.38,NW,315,17.3,17.3,71,0.00,CLR,,0.00,WeatherDisplay:10.37,2013-02-04 11:01:00,
2013-02-04 04:06:00,36.9,28.3,24.39,NE,45,15.0,15.0,71,0.00,CLR,,0.00,WeatherDisplay:10.37,2013-02-04 11:06:00,
2013-02-04 04:11:00,36.7,28.2,24.38,NW,315,15.0,15.0,71,0.00,CLR,,0.00,WeatherDisplay:10.37,2013-02-04 11:11:00,
2013-02-04 04:16:00,36.7,28.5,24.39,NW,315,12.7,12.7,72,0.00,CLR,,0.00,WeatherDisplay:10.37,2013-02-04 11:16:00,
2013-02-04 04:22:00,36.5,28.3,24.38,NW,315,17.3,17.3,72,0.00,CLR,,0.00,WeatherDisplay:10.37,2013-02-04 11:22:00,
2013-02-04 04:27:00,36.3,28.2,24.38,North,0,16.1,16.1,72,0.00,CLR,,0.00,WeatherDisplay:10.37,2013-02-04 11:27:00,
2013-02-04 04:32:00,36.3,28.2,24.38,NW,315,23.0,23.0,72,0.00,CLR,,0.00,WeatherDisplay:10.37,2013-02-04 11:32:00,
2013-02-04 04:37:00,36.0,27.8,24.38,North,0,15.0,15.0,72,0.00,CLR,,0.00,WeatherDisplay:10.37,2013-02-04 11:37:00,
2013-02-04 04:43:00,35.8,28.0,24.38,NW,315,17.3,17.3,73,0.00,CLR,,0.00,WeatherDisplay:10.37,2013-02-04 11:43:00,
2013-02-04 04:48:00,35.8,28.0,24.38,NW,315,13.8,13.8,73,0.00,CLR,,0.00,WeatherDisplay:10.37,2013-02-04 11:48:00,
2013-02-04 04:53:00,35.6,27.5,24.38,NW,315,16.1,16.1,72,0.00,CLR,,0.00,WeatherDisplay:10.37,2013-02-04 11:53:00,
2013-02-04 04:58:00,35.4,27.6,24.39,NW,315,16.1,16.1,73,0.00,CLR,,0.00,WeatherDisplay:10.37,2013-02-04 11:58:00,
2013-02-04 05:04:00,35.4,27.6,24.39,North,0,13.8,13.8,73,0.00,CLR,,0.00,WeatherDisplay:10.37,2013-02-04 12:04:00,
2013-02-04 05:09:00,35.4,27.6,24.39,NE,45,19.6,19.6,73,0.00,CLR,,0.00,WeatherDisplay:10.37,2013-02-04 12:09:00,
2013-02-04 05:14:00,35.2,27.4,24.39,NW,315,17.3,17.3,73,0.00,CLR,,0.00,WeatherDisplay:10.37,2013-02-04 12:14:00,
2013-02-04 05:19:00,35.2,27.4,24.39,North,0,15.0,15.0,73,0.00,CLR,,0.00,WeatherDisplay:10.37,2013-02-04 12:19:00,
2013-02-04 05:25:00,35.1,27.3,24.39,North,0,17.3,17.3,73,0.00,CLR,,0.00,WeatherDisplay:10.37,2013-02-04 12:25:00,
2013-02-04 05:30:00,35.2,27.4,24.39,NW,315,20.7,20.7,73,0.00,CLR,,0.00,WeatherDisplay:10.37,2013-02-04 12:30:00,
2013-02-04 05:35:00,35.2,27.4,24.39,WNW,292,20.7,20.7,73,0.00,CLR,,0.00,WeatherDisplay:10.37,2013-02-04 12:35:00,
2013-02-04 05:40:00,35.1,26.9,24.39,NW,315,17.3,17.3,72,0.00,CLR,,0.00,WeatherDisplay:10.37,2013-02-04 12:40:00,
2013-02-04 05:45:00,35.1,27.3,24.39,NW,315,19.6,19.6,73,0.00,CLR,,0.00,WeatherDisplay:10.37,2013-02-04 12:45:00,
2013-02-04 05:51:00,35.1,27.3,24.39,NW,315,12.7,12.7,73,0.00,CLR,,0.00,WeatherDisplay:10.37,2013-02-04 12:51:00,
2013-02-04 05:56:00,35.1,26.9,24.40,NW,315,17.3,17.3,72,0.00,CLR,,0.00,WeatherDisplay:10.37,2013-02-04 12:56:00,
2013-02-04 06:01:00,35.1,26.9,24.40,NW,315,17.3,17.3,72,0.00,CLR,,0.00,WeatherDisplay:10.37,2013-02-04 13:01:00,
2013-02-04 06:06:00,35.1,26.9,24.40,NW,315,17.3,17.3,72,0.00,CLR,,0.00,WeatherDisplay:10.37,2013-02-04 13:06:00,
2013-02-04 06:11:00,35.1,26.9,24.40,North,0,12.7,12.7,72,0.00,CLR,,0.00,WeatherDisplay:10.37,2013-02-04 13:11:00,
2013-02-04 06:17:00,35.2,27.1,24.40,NNE,14,17.3,17.3,72,0.00,CLR,,0.00,WeatherDisplay:10.37,2013-02-04 13:17:00,
2013-02-04 06:22:00,35.2,27.1,24.40,West,270,18.4,18.4,72,0.00,CLR,,0.00,WeatherDisplay:10.37,2013-02-04 13:22:00,
2013-02-04 06:27:00,35.2,27.1,24.40,NW,315,18.4,18.4,72,0.00,CLR,,0.00,WeatherDisplay:10.37,2013-02-04 13:27:00,
2013-02-04 06:32:00,35.4,27.3,24.40,NW,315,20.7,20.7,72,0.00,CLR,,0.00,WeatherDisplay:10.37,2013-02-04 13:32:00,
2013-02-04 06:38:00,35.4,27.3,24.40,NW,315,21.9,21.9,72,0.00,CLR,,0.00,WeatherDisplay:10.37,2013-02-04 13:38:00,
2013-02-04 06:43:00,35.4,27.3,24.40,NW,315,11.5,11.5,72,0.00,CLR,,0.00,WeatherDisplay:10.37,2013-02-04 13:43:00,
2013-02-04 06:48:00,35.4,27.3,24.40,NW,315,11.5,11.5,72,0.00,CLR,,0.00,WeatherDisplay:10.37,2013-02-04 13:48:00,
2013-02-04 06:53:00,35.4,27.3,24.40,NW,315,16.1,16.1,72,0.00,CLR,,0.00,WeatherDisplay:10.37,2013-02-04 13:53:00,
2013-02-04 06:58:00,35.2,27.1,24.41,NW,315,18.4,18.4,72,0.00,CLR,,0.00,WeatherDisplay:10.37,2013-02-04 13:58:00,
2013-02-04 07:03:00,35.2,27.1,24.41,North,0,15.0,15.0,72,0.00,CLR,,0.00,WeatherDisplay:10.37,2013-02-04 14:03:00,
2013-02-04 07:09:00,35.2,27.1,24.41,NW,315,15.0,15.0,72,0.00,CLR,,0.00,WeatherDisplay:10.37,2013-02-04 14:09:00,
2013-02-04 07:14:00,35.2,27.1,24.42,NW,315,16.1,16.1,72,0.00,CLR,,0.00,WeatherDisplay:10.37,2013-02-04 14:14:00,
2013-02-04 07:19:00,35.4,27.6,24.42,North,0,19.6,19.6,73,0.00,CLR,,0.00,WeatherDisplay:10.37,2013-02-04 14:19:00,
2013-02-04 07:24:00,36.3,27.8,24.42,SW,225,15.0,15.0,71,0.00,CLR,,0.00,WeatherDisplay:10.37,2013-02-04 14:24:00,
2013-02-04 07:29:00,36.9,28.0,24.42,North,0,13.8,13.8,70,0.00,CLR,,0.00,WeatherDisplay:10.37,2013-02-04 14:29:00,
2013-02-04 07:34:00,37.2,28.0,24.42,NW,315,19.6,19.6,69,0.00,CLR,,0.00,WeatherDisplay:10.37,2013-02-04 14:34:00,
2013-02-04 07:39:00,37.2,27.6,24.42,NE,45,18.4,18.4,68,0.00,CLR,,0.00,WeatherDisplay:10.37,2013-02-04 14:39:00,
2013-02-04 07:45:00,37.6,29.4,24.42,NW,315,15.0,15.0,72,0.00,CLR,,0.00,WeatherDisplay:10.37,2013-02-04 14:45:00,
2013-02-04 07:50:00,38.3,29.7,24.42,NW,315,13.8,13.8,71,0.00,CLR,,0.00,WeatherDisplay:10.37,2013-02-04 14:50:00,
2013-02-04 07:55:00,38.8,29.9,24.43,North,0,15.0,15.0,70,0.00,CLR,,0.00,WeatherDisplay:10.37,2013-02-04 14:55:00,
2013-02-04 08:00:00,39.7,29.7,24.44,North,0,19.6,19.6,67,0.00,CLR,,0.00,WeatherDisplay:10.37,2013-02-04 15:00:00,
2013-02-04 08:05:00,39.7,29.7,24.43,North,0,13.8,13.8,67,0.00,CLR,,0.00,WeatherDisplay:10.37,2013-02-04 15:05:00,
2013-02-04 08:10:00,40.5,30.0,24.44,North,0,10.4,10.4,66,0.00,CLR,,0.00,WeatherDisplay:10.37,2013-02-04 15:10:00,
2013-02-04 08:15:00,41.9,30.6,24.44,NW,315,8.1,8.1,64,0.00,CLR,,0.00,WeatherDisplay:10.37,2013-02-04 15:15:00,
2013-02-04 08:20:00,42.8,30.7,24.44,North,0,8.1,8.1,62,0.00,CLR,,0.00,WeatherDisplay:10.37,2013-02-04 15:20:00,
2013-02-04 08:25:00,42.6,30.9,24.44,North,0,8.1,8.1,63,0.00,CLR,,0.00,WeatherDisplay:10.37,2013-02-04 15:25:00,
2013-02-04 08:31:00,42.8,30.3,24.44,North,0,10.4,10.4,61,0.00,CLR,,0.00,WeatherDisplay:10.37,2013-02-04 15:31:00,
2013-02-04 08:36:00,43.7,31.1,24.45,North,0,5.8,7.6,61,0.00,CLR,,0.00,WeatherDisplay:10.37,2013-02-04 15:36:00,
2013-02-04 08:41:00,43.2,30.2,24.45,NW,315,8.1,8.1,60,0.00,CLR,,0.00,WeatherDisplay:10.37,2013-02-04 15:41:00,
2013-02-04 08:46:00,43.9,30.5,24.45,NW,315,11.5,11.5,59,0.00,CLR,,0.00,WeatherDisplay:10.37,2013-02-04 15:46:00,
2013-02-04 08:51:00,43.0,30.0,24.45,NW,315,15.0,15.0,60,0.00,CLR,,0.00,WeatherDisplay:10.37,2013-02-04 15:51:00,
2013-02-04 08:57:00,43.0,30.4,24.45,NE,45,11.5,11.5,61,0.00,CLR,,0.00,WeatherDisplay:10.37,2013-02-04 15:57:00,
2013-02-04 09:02:00,44.2,31.6,24.46,NW,315,5.8,5.8,61,0.00,CLR,,0.00,WeatherDisplay:10.37,2013-02-04 16:02:00,
2013-02-04 09:07:00,44.2,31.6,24.45,NW,315,5.8,5.8,61,0.00,CLR,,0.00,WeatherDisplay:10.37,2013-02-04 16:07:00,
2013-02-04 09:12:00,44.4,30.6,24.46,NW,315,8.1,8.1,58,0.00,CLR,,0.00,WeatherDisplay:10.37,2013-02-04 16:12:00,
2013-02-04 09:18:00,46.0,30.8,24.45,North,0,9.2,9.2,55,0.00,CLR,,0.00,WeatherDisplay:10.37,2013-02-04 16:18:00,
2013-02-04 09:23:00,44.8,29.6,24.45,WNW,292,13.8,13.8,55,0.00,CLR,,0.00,WeatherDisplay:10.37,2013-02-04 16:23:00,
2013-02-04 09:28:00,44.2,30.0,24.45,NW,315,15.0,15.0,57,0.00,CLR,,0.00,WeatherDisplay:10.37,2013-02-04 16:28:00,
2013-02-04 09:33:00,45.0,30.6,24.45,North,0,10.4,10.4,57,0.00,CLR,,0.00,WeatherDisplay:10.37,2013-02-04 16:33:00,
2013-02-04 09:38:00,45.9,30.6,24.46,North,0,10.4,10.4,55,0.00,CLR,,0.00,WeatherDisplay:10.37,2013-02-04 16:38:00,
2013-02-04 09:43:00,46.4,31.1,24.46,NNE,22,12.7,12.7,55,0.00,CLR,,0.00,WeatherDisplay:10.37,2013-02-04 16:43:00,
2013-02-04 09:48:00,47.1,31.3,24.45,North,0,10.4,10.4,54,0.00,CLR,,0.00,WeatherDisplay:10.37,2013-02-04 16:48:00,
2013-02-04 09:54:00,48.4,31.5,24.45,North,0,8.1,8.1,52,0.00,CLR,,0.00,WeatherDisplay:10.37,2013-02-04 16:54:00,
2013-02-04 09:59:00,48.9,31.1,24.45,North,0,9.2,9.2,50,0.00,CLR,,0.00,WeatherDisplay:10.37,2013-02-04 16:59:00,
2013-02-04 10:04:00,48.9,30.6,24.46,NW,315,10.4,10.4,49,0.00,CLR,,0.00,WeatherDisplay:10.37,2013-02-04 17:04:00,
2013-02-04 10:09:00,48.6,29.7,24.45,North,0,13.8,13.8,48,0.00,CLR,,0.00,WeatherDisplay:10.37,2013-02-04 17:09:00,
2013-02-04 10:15:00,47.7,29.9,24.45,North,0,10.4,10.4,50,0.00,CLR,,0.00,WeatherDisplay:10.37,2013-02-04 17:15:00,
2013-02-04 10:20:00,48.0,30.2,24.45,NW,315,11.5,11.5,50,0.00,CLR,,0.00,WeatherDisplay:10.37,2013-02-04 17:20:00,
2013-02-04 10:25:00,48.2,29.4,24.46,North,0,12.7,12.7,48,0.00,CLR,,0.00,WeatherDisplay:10.37,2013-02-04 17:25:00,
2013-02-04 10:30:00,48.6,29.2,24.46,North,0,12.7,12.7,47,0.00,CLR,,0.00,WeatherDisplay:10.37,2013-02-04 17:30:00,
2013-02-04 10:35:00,48.7,29.4,24.46,North,0,10.4,10.4,47,0.00,CLR,,0.00,WeatherDisplay:10.37,2013-02-04 17:35:00,
2013-02-04 10:40:00,50.4,29.8,24.46,North,0,15.0,15.0,45,0.00,CLR,,0.00,WeatherDisplay:10.37,2013-02-04 17:40:00,
2013-02-04 10:45:00,48.9,28.5,24.45,North,0,15.0,15.0,45,0.00,CLR,,0.00,WeatherDisplay:10.37,2013-02-04 17:45:00,
2013-02-04 10:51:00,48.9,29.0,24.45,NW,315,10.4,10.4,46,0.00,CLR,,0.00,WeatherDisplay:10.37,2013-02-04 17:51:00,
2013-02-04 10:56:00,49.1,28.7,24.45,North,0,17.3,17.3,45,0.00,CLR,,0.00,WeatherDisplay:10.37,2013-02-04 17:56:00,
2013-02-04 11:01:00,49.3,28.3,24.45,North,0,15.0,15.0,44,0.00,CLR,,0.00,WeatherDisplay:10.37,2013-02-04 18:01:00,
2013-02-04 11:06:00,49.3,28.3,24.45,North,0,15.0,15.0,44,0.00,CLR,,0.00,WeatherDisplay:10.37,2013-02-04 18:06:00,
2013-02-04 11:12:00,50.7,27.2,24.45,North,0,15.0,15.0,40,0.00,CLR,,0.00,WeatherDisplay:10.37,2013-02-04 18:12:00,
2013-02-04 11:17:00,51.1,27.6,24.45,NW,315,12.7,12.7,40,0.00,CLR,,0.00,WeatherDisplay:10.37,2013-02-04 18:17:00,
2013-02-04 11:22:00,51.1,28.2,24.45,WNW,292,10.4,10.4,41,0.00,CLR,,0.00,WeatherDisplay:10.37,2013-02-04 18:22:00,
2013-02-04 11:27:00,51.8,28.2,24.44,NW,315,10.4,10.4,40,0.00,CLR,,0.00,WeatherDisplay:10.37,2013-02-04 18:27:00,
2013-02-04 11:32:00,51.4,28.5,24.44,NW,315,6.9,6.9,41,0.00,CLR,,0.00,WeatherDisplay:10.37,2013-02-04 18:32:00,
2013-02-04 11:38:00,51.8,27.6,24.44,NW,315,5.8,6.9,39,0.00,CLR,,0.00,WeatherDisplay:10.37,2013-02-04 18:38:00,
2013-02-04 11:43:00,51.6,28.7,24.44,West,270,11.5,11.5,41,0.00,CLR,,0.00,WeatherDisplay:10.37,2013-02-04 18:43:00,
2013-02-04 11:48:00,51.3,27.7,24.44,North,0,9.2,9.2,40,0.00,CLR,,0.00,WeatherDisplay:10.37,2013-02-04 18:48:00,
2013-02-04 11:53:00,52.0,27.8,24.44,NW,315,8.1,9.2,39,0.00,CLR,,0.00,WeatherDisplay:10.37,2013-02-04 18:53:00,
2013-02-04 11:58:00,52.2,27.3,24.43,NW,315,11.5,11.5,38,0.00,CLR,,0.00,WeatherDisplay:10.37,2013-02-04 18:58:00,
2013-02-04 12:04:00,52.0,27.8,24.43,NW,315,11.5,11.5,39,0.00,CLR,,0.00,WeatherDisplay:10.37,2013-02-04 19:04:00,
2013-02-04 12:09:00,51.3,28.3,24.43,NW,315,10.4,10.4,41,0.00,CLR,,0.00,WeatherDisplay:10.37,2013-02-04 19:09:00,
2013-02-04 12:14:00,52.2,28.5,24.43,NW,315,8.1,8.1,40,0.00,CLR,,0.00,WeatherDisplay:10.37,2013-02-04 19:14:00,
2013-02-04 12:19:00,52.2,26.6,24.42,North,0,11.5,11.5,37,0.00,CLR,,0.00,WeatherDisplay:10.37,2013-02-04 19:19:00,
2013-02-04 12:24:00,52.9,27.3,24.42,West,270,8.1,8.1,37,0.00,CLR,,0.00,WeatherDisplay:10.37,2013-02-04 19:24:00,
2013-02-04 12:30:00,53.1,26.8,24.42,NW,315,9.2,9.2,36,0.00,CLR,,0.00,WeatherDisplay:10.37,2013-02-04 19:30:00,
2013-02-04 12:35:00,53.2,26.3,24.42,NW,315,11.5,11.5,35,0.00,CLR,,0.00,WeatherDisplay:10.37,2013-02-04 19:35:00,
2013-02-04 12:40:00,54.0,26.2,24.42,NW,315,10.4,10.4,34,0.00,CLR,,0.00,WeatherDisplay:10.37,2013-02-04 19:40:00,
2013-02-04 12:45:00,53.4,27.1,24.41,NW,315,5.8,6.0,36,0.00,CLR,,0.00,WeatherDisplay:10.37,2013-02-04 19:45:00,
2013-02-04 12:50:00,54.0,25.5,24.41,SW,225,8.1,8.1,33,0.00,CLR,,0.00,WeatherDisplay:10.37,2013-02-04 19:50:00,
2013-02-04 12:56:00,54.3,24.3,24.41,NW,315,10.4,10.4,31,0.00,CLR,,0.00,WeatherDisplay:10.37,2013-02-04 19:56:00,
2013-02-04 13:01:00,55.0,24.9,24.41,NW,315,13.8,13.8,31,0.00,CLR,,0.00,WeatherDisplay:10.37,2013-02-04 20:01:00,
2013-02-04 13:06:00,55.0,24.9,24.41,NW,315,13.8,13.8,31,0.00,CLR,,0.00,WeatherDisplay:10.37,2013-02-04 20:06:00,
2013-02-04 13:11:00,54.7,24.6,24.40,SW,225,10.4,10.4,31,0.00,CLR,,0.00,WeatherDisplay:10.37,2013-02-04 20:11:00,
2013-02-04 13:16:00,55.0,25.7,24.40,NW,315,5.8,5.8,32,0.00,CLR,,0.00,WeatherDisplay:10.37,2013-02-04 20:16:00,
2013-02-04 13:21:00,55.2,25.1,24.40,NE,45,6.9,6.9,31,0.00,CLR,,0.00,WeatherDisplay:10.37,2013-02-04 20:21:00,
2013-02-04 13:28:00,55.9,24.9,24.40,NW,315,10.4,10.4,30,0.00,CLR,,0.00,WeatherDisplay:10.37,2013-02-04 20:28:00,
2013-02-04 18:05:00,55.9,24.9,24.40,NW,315,10.4,10.4,30,0.00,CLR,,0.00,WeatherDisplay:10.37,2013-02-05 01:05:00,
2013-02-04 18:10:00,46.8,21.8,24.38,NW,315,15.0,15.0,37,0.00,CLR,,0.00,WeatherDisplay:10.37,2013-02-05 01:10:00,
2013-02-04 18:15:00,46.4,22.1,24.38,NW,315,10.4,10.4,38,0.00,CLR,,0.00,WeatherDisplay:10.37,2013-02-05 01:15:00,
2013-02-04 18:21:00,46.0,23.6,24.38,North,0,11.5,11.5,41,0.00,CLR,,0.00,WeatherDisplay:10.37,2013-02-05 01:21:00,
2013-02-04 18:26:00,45.7,23.3,24.40,NNW,338,12.7,12.7,41,0.00,CLR,,0.00,WeatherDisplay:10.37,2013-02-05 01:26:00,
2013-02-04 18:31:00,45.3,23.0,24.39,North,0,11.5,11.5,41,0.00,CLR,,0.00,WeatherDisplay:10.37,2013-02-05 01:31:00,
2013-02-04 18:37:00,45.0,22.6,24.39,NW,315,10.4,10.4,41,0.00,CLR,,0.00,WeatherDisplay:10.37,2013-02-05 01:37:00,
2013-02-04 18:42:00,44.6,22.3,24.40,NW,315,10.4,10.4,41,0.00,CLR,,0.00,WeatherDisplay:10.37,2013-02-05 01:42:00,
2013-02-04 18:47:00,44.2,22.6,24.40,North,0,9.2,9.2,42,0.00,CLR,,0.00,WeatherDisplay:10.37,2013-02-05 01:47:00,
2013-02-04 18:52:00,44.1,22.4,24.40,NW,315,10.4,10.4,42,0.00,CLR,,0.00,WeatherDisplay:10.37,2013-02-05 01:52:00,
2013-02-04 18:58:00,43.9,22.2,24.40,NW,315,9.2,9.2,42,0.00,CLR,,0.00,WeatherDisplay:10.37,2013-02-05 01:58:00,
2013-02-04 19:03:00,43.7,22.6,24.39,NW,315,8.1,8.1,43,0.00,CLR,,0.00,WeatherDisplay:10.37,2013-02-05 02:03:00,
2013-02-04 19:08:00,43.7,22.6,24.40,NW,315,8.1,8.1,43,0.00,CLR,,0.00,WeatherDisplay:10.37,2013-02-05 02:08:00,
2013-02-04 19:13:00,44.1,22.4,24.40,NW,315,10.4,10.4,42,0.00,CLR,,0.00,WeatherDisplay:10.37,2013-02-05 02:13:00,
2013-02-04 19:19:00,44.2,22.6,24.40,NW,315,10.4,10.4,42,0.00,CLR,,0.00,WeatherDisplay:10.37,2013-02-05 02:19:00,
2013-02-04 19:24:00,44.4,21.6,24.40,NNE,14,12.7,12.7,40,0.00,CLR,,0.00,WeatherDisplay:10.37,2013-02-05 02:24:00,
2013-02-04 19:29:00,44.6,20.5,24.40,NW,315,12.7,12.7,38,0.00,CLR,,0.00,WeatherDisplay:10.37,2013-02-05 02:29:00,
2013-02-04 19:34:00,44.4,21.0,24.40,ENE,68,6.9,6.9,39,0.00,CLR,,0.00,WeatherDisplay:10.37,2013-02-05 02:34:00,
2013-02-04 19:40:00,43.9,21.1,24.40,North,0,11.5,11.5,40,0.00,CLR,,0.00,WeatherDisplay:10.37,2013-02-05 02:40:00,
2013-02-04 19:45:00,43.9,21.1,24.40,North,0,5.8,5.8,40,0.00,CLR,,0.00,WeatherDisplay:10.37,2013-02-05 02:45:00,
2013-02-04 19:50:00,43.7,21.5,24.40,North,0,10.4,10.4,41,0.00,CLR,,0.00,WeatherDisplay:10.37,2013-02-05 02:50:00,
2013-02-04 19:55:00,43.5,21.3,24.40,North,0,5.8,5.8,41,0.00,CLR,,0.00,WeatherDisplay:10.37,2013-02-05 02:55:00,
2013-02-04 20:01:00,43.2,21.6,24.40,NE,45,3.5,3.5,42,0.00,CLR,,0.00,WeatherDisplay:10.37,2013-02-05 03:01:00,
2013-02-04 20:06:00,42.6,21.7,24.41,NE,45,2.3,2.3,43,0.00,CLR,,0.00,WeatherDisplay:10.37,2013-02-05 03:06:00,
2013-02-04 20:11:00,42.1,21.2,24.41,NE,45,3.5,3.5,43,0.00,CLR,,0.00,WeatherDisplay:10.37,2013-02-05 03:11:00,
2013-02-04 20:16:00,41.5,21.2,24.41,East,90,2.3,0.0,44,0.00,CLR,,0.00,WeatherDisplay:10.37,2013-02-05 03:16:00,
2013-02-04 20:21:00,41.0,20.7,24.41,NW,315,1.1,1.1,44,0.00,CLR,,0.00,WeatherDisplay:10.37,2013-02-05 03:21:00,
2013-02-04 20:27:00,41.0,20.7,24.41,North,0,5.8,5.8,44,0.00,CLR,,0.00,WeatherDisplay:10.37,2013-02-05 03:27:00,
2013-02-04 20:32:00,41.4,21.6,24.41,NW,315,6.9,6.9,45,0.00,CLR,,0.00,WeatherDisplay:10.37,2013-02-05 03:32:00,
2013-02-04 20:37:00,41.5,21.8,24.41,NW,315,8.1,8.1,45,0.00,CLR,,0.00,WeatherDisplay:10.37,2013-02-05 03:37:00,
2013-02-04 20:42:00,41.4,21.6,24.41,West,270,8.1,8.1,45,0.00,CLR,,0.00,WeatherDisplay:10.37,2013-02-05 03:42:00,
2013-02-04 20:47:00,41.4,22.1,24.41,West,270,6.9,6.9,46,0.00,CLR,,0.00,WeatherDisplay:10.37,2013-02-05 03:47:00,
2013-02-04 20:53:00,41.0,21.8,24.41,NW,315,6.9,6.9,46,0.00,CLR,,0.00,WeatherDisplay:10.37,2013-02-05 03:53:00,
2013-02-04 20:58:00,41.0,22.3,24.42,North,0,11.5,11.5,47,0.00,CLR,,0.00,WeatherDisplay:10.37,2013-02-05 03:58:00,
2013-02-04 21:03:00,41.0,21.8,24.41,North,0,6.9,6.9,46,0.00,CLR,,0.00,WeatherDisplay:10.37,2013-02-05 04:03:00,
2013-02-04 21:09:00,41.0,22.3,24.41,WNW,292,15.0,15.0,47,0.00,CLR,,0.00,WeatherDisplay:10.37,2013-02-05 04:09:00,
2013-02-04 21:14:00,41.0,22.3,24.41,NW,315,15.0,15.0,47,0.00,CLR,,0.00,WeatherDisplay:10.37,2013-02-05 04:14:00,
2013-02-04 21:19:00,40.8,23.1,24.41,NW,315,16.1,16.1,49,0.00,CLR,,0.00,WeatherDisplay:10.37,2013-02-05 04:19:00,
2013-02-04 21:24:00,40.6,22.9,24.41,NW,315,15.0,15.0,49,0.00,CLR,,0.00,WeatherDisplay:10.37,2013-02-05 04:24:00,
2013-02-04 21:30:00,40.3,23.1,24.41,NW,315,15.0,15.0,50,0.00,CLR,,0.00,WeatherDisplay:10.37,2013-02-05 04:30:00,
2013-02-04 21:35:00,40.5,23.3,24.41,NW,315,19.6,19.6,50,0.00,CLR,,0.00,WeatherDisplay:10.37,2013-02-05 04:35:00,
2013-02-04 21:40:00,40.8,23.6,24.40,NW,315,17.3,17.3,50,0.00,CLR,,0.00,WeatherDisplay:10.37,2013-02-05 04:40:00,
2013-02-04 21:45:00,40.6,23.9,24.41,North,0,15.0,15.0,51,0.00,CLR,,0.00,WeatherDisplay:10.37,2013-02-05 04:45:00,
2013-02-04 21:50:00,40.8,24.1,24.41,North,0,17.3,17.3,51,0.00,CLR,,0.00,WeatherDisplay:10.37,2013-02-05 04:50:00,
2013-02-04 21:55:00,41.4,23.6,24.41,North,0,21.9,21.9,49,0.00,CLR,,0.00,WeatherDisplay:10.37,2013-02-05 04:55:00,
2013-02-04 22:00:00,41.4,23.1,24.41,NW,315,19.0,19.0,48,0.00,CLR,,0.00,WeatherDisplay:10.37,2013-02-05 05:00:00,
2013-02-04 22:06:00,41.4,23.1,24.40,NW,315,18.4,18.4,48,0.00,CLR,,0.00,WeatherDisplay:10.37,2013-02-05 05:06:00,
2013-02-04 22:11:00,41.4,23.1,24.41,West,270,17.3,17.3,48,0.00,CLR,,0.00,WeatherDisplay:10.37,2013-02-05 05:11:00,
2013-02-04 22:16:00,41.2,23.0,24.40,NW,315,10.4,11.4,48,0.00,CLR,,0.00,WeatherDisplay:10.37,2013-02-05 05:16:00,
2013-02-04 22:21:00,41.2,23.0,24.41,NW,315,17.3,17.3,48,0.00,CLR,,0.00,WeatherDisplay:10.37,2013-02-05 05:21:00,
2013-02-04 22:27:00,41.0,22.8,24.40,NW,315,13.8,13.8,48,0.00,CLR,,0.00,WeatherDisplay:10.37,2013-02-05 05:27:00,
2013-02-04 22:32:00,41.0,22.8,24.40,West,270,15.0,15.0,48,0.00,CLR,,0.00,WeatherDisplay:10.37,2013-02-05 05:32:00,
2013-02-04 22:37:00,41.0,22.3,24.41,NW,315,13.8,13.8,47,0.00,CLR,,0.00,WeatherDisplay:10.37,2013-02-05 05:37:00,
2013-02-04 22:42:00,40.6,22.5,24.40,NW,315,15.0,15.0,48,0.00,CLR,,0.00,WeatherDisplay:10.37,2013-02-05 05:42:00,
2013-02-04 22:47:00,40.6,22.5,24.40,NW,315,12.7,12.7,48,0.00,CLR,,0.00,WeatherDisplay:10.37,2013-02-05 05:47:00,
2013-02-04 22:53:00,40.6,22.5,24.40,North,0,12.7,12.7,48,0.00,CLR,,0.00,WeatherDisplay:10.37,2013-02-05 05:53:00,
2013-02-04 22:58:00,40.8,22.6,24.41,West,270,10.4,10.4,48,0.00,CLR,,0.00,WeatherDisplay:10.37,2013-02-05 05:58:00,
2013-02-04 23:03:00,40.6,22.5,24.41,NW,315,8.1,8.1,48,0.00,CLR,,0.00,WeatherDisplay:10.37,2013-02-05 06:03:00,
2013-02-04 23:08:00,41.0,21.8,24.41,West,270,8.1,8.1,46,0.00,CLR,,0.00,WeatherDisplay:10.37,2013-02-05 06:08:00,
2013-02-04 23:13:00,40.8,22.1,24.41,NW,315,10.4,10.4,47,0.00,CLR,,0.00,WeatherDisplay:10.37,2013-02-05 06:13:00,
2013-02-04 23:18:00,40.8,22.1,24.41,NW,315,9.2,9.2,47,0.00,CLR,,0.00,WeatherDisplay:10.37,2013-02-05 06:18:00,
2013-02-04 23:24:00,40.5,21.8,24.41,West,270,10.4,10.4,47,0.00,CLR,,0.00,WeatherDisplay:10.37,2013-02-05 06:24:00,
2013-02-04 23:29:00,40.3,22.1,24.41,NW,315,6.9,6.9,48,0.00,CLR,,0.00,WeatherDisplay:10.37,2013-02-05 06:29:00,
2013-02-04 23:34:00,40.6,22.5,24.41,SW,225,5.8,5.8,48,0.00,CLR,,0.00,WeatherDisplay:10.37,2013-02-05 06:34:00,
2013-02-04 23:39:00,40.5,21.8,24.41,West,270,3.5,3.5,47,0.00,CLR,,0.00,WeatherDisplay:10.37,2013-02-05 06:39:00,
2013-02-04 23:45:00,39.9,21.8,24.41,West,270,3.5,3.5,48,0.00,CLR,,0.00,WeatherDisplay:10.37,2013-02-05 06:45:00,
2013-02-04 23:50:00,39.4,21.8,24.41,West,270,3.5,3.5,49,0.00,CLR,,0.00,WeatherDisplay:10.37,2013-02-05 06:50:00,
2013-02-04 23:55:00,39.0,21.9,24.40,SW,225,8.1,8.1,50,0.00,CLR,,0.00,WeatherDisplay:10.37,2013-02-05 06:55:00,